createdAt,value
2019-03-06T00:00:21.074Z,71.99
2019-03-06T00:01:21.067Z,71.95
2019-03-06T00:02:21.057Z,71.64
2019-03-06T00:03:21.045Z,72.06
2019-03-06T00:04:21.054Z,71.03
2019-03-06T00:05:21.019Z,70.92
2019-03-06T00:06:21.125Z,71.03
2019-03-06T00:07:20.998Z,70.92
2019-03-06T00:08:20.993Z,71.58
2019-03-06T00:09:21.015Z,71.68
2019-03-06T00:10:20.971Z,71.95
2019-03-06T00:11:20.958Z,71.47
2019-03-06T00:12:20.939Z,71.89
2019-03-06T00:13:20.932Z,71.68
2019-03-06T00:14:20.965Z,72.30
2019-03-06T00:15:20.902Z,72.27
2019-03-06T00:16:20.898Z,72.09
2019-03-06T00:17:20.879Z,71.78
2019-03-06T00:18:20.903Z,72.30
2019-03-06T00:19:20.889Z,72.19
2019-03-06T00:20:20.849Z,72.09
2019-03-06T00:21:20.834Z,72.40
2019-03-06T00:22:20.829Z,72.09
2019-03-06T00:23:20.822Z,71.99
2019-03-06T00:24:20.829Z,72.19
2019-03-06T00:25:20.796Z,72.30
2019-03-06T00:26:20.776Z,72.50
2019-03-06T00:27:20.765Z,71.89
2019-03-06T00:28:20.762Z,72.30
2019-03-06T00:29:20.762Z,72.19
2019-03-06T00:30:20.765Z,71.92
2019-03-06T00:31:20.728Z,72.09
2019-03-06T00:32:20.711Z,72.30
2019-03-06T00:33:20.699Z,72.40
2019-03-06T00:34:20.690Z,72.50
2019-03-06T00:35:20.698Z,72.54
2019-03-06T00:36:20.664Z,72.40
2019-03-06T00:37:20.653Z,72.61
2019-03-06T00:38:20.644Z,72.40
2019-03-06T00:39:20.638Z,72.50
2019-03-06T00:40:20.642Z,72.71
2019-03-06T00:41:20.614Z,72.74
2019-03-06T00:42:20.608Z,72.71
2019-03-06T00:43:20.598Z,72.95
2019-03-06T00:44:20.570Z,72.85
2019-03-06T00:45:20.589Z,73.77
2019-03-06T00:46:20.551Z,73.47
2019-03-06T00:47:20.538Z,73.26
2019-03-06T00:48:20.551Z,73.47
2019-03-06T00:49:20.525Z,73.57
2019-03-06T00:50:20.546Z,73.68
2019-03-06T00:51:20.502Z,73.57
2019-03-06T00:52:20.480Z,73.57
2019-03-06T00:53:20.475Z,73.77
2019-03-06T00:54:20.459Z,73.98
2019-03-06T00:55:20.454Z,73.68
2019-03-06T00:56:20.490Z,73.98
2019-03-06T00:57:20.424Z,73.57
2019-03-06T00:58:20.416Z,73.77
2019-03-06T00:59:20.402Z,73.95
2019-03-06T01:00:20.404Z,73.77
2019-03-06T01:01:20.383Z,73.77
2019-03-06T01:02:20.402Z,73.77
2019-03-06T01:03:20.365Z,73.98
2019-03-06T01:04:20.345Z,73.77
2019-03-06T01:05:20.338Z,73.88
2019-03-06T01:06:20.356Z,73.88
2019-03-06T01:07:20.318Z,73.98
2019-03-06T01:08:20.300Z,73.77
2019-03-06T01:09:20.294Z,73.68
2019-03-06T01:10:20.278Z,74.08
2019-03-06T01:11:20.292Z,73.98
2019-03-06T01:12:20.281Z,73.77
2019-03-06T01:13:20.244Z,74.50
2019-03-06T01:14:20.237Z,74.40
2019-03-06T01:15:20.243Z,74.40
2019-03-06T01:16:20.254Z,74.40
2019-03-06T01:17:20.207Z,74.50
2019-03-06T01:18:20.190Z,74.50
2019-03-06T01:19:20.190Z,74.29
2019-03-06T01:20:20.163Z,74.29
2019-03-06T01:21:20.184Z,74.60
2019-03-06T01:22:20.146Z,74.71
2019-03-06T01:23:20.132Z,74.81
2019-03-06T01:24:20.126Z,74.81
2019-03-06T01:25:20.156Z,74.91
2019-03-06T01:26:20.120Z,74.91
2019-03-06T01:27:20.093Z,74.77
2019-03-06T01:28:20.086Z,75.12
2019-03-06T01:29:20.066Z,75.09
2019-03-06T01:30:20.053Z,75.22
2019-03-06T01:31:20.071Z,75.01
2019-03-06T01:32:20.041Z,74.98
2019-03-06T01:33:20.022Z,75.29
2019-03-06T01:34:20.014Z,75.22
2019-03-06T01:35:19.994Z,75.18
2019-03-06T01:36:19.979Z,75.01
2019-03-06T01:37:20.001Z,75.18
2019-03-06T01:38:19.956Z,75.29
2019-03-06T01:39:19.960Z,75.29
2019-03-06T01:40:19.949Z,75.29
2019-03-06T01:41:19.923Z,75.63
2019-03-06T01:42:19.933Z,75.49
2019-03-06T01:43:19.915Z,75.63
2019-03-06T01:44:19.888Z,75.49
2019-03-06T01:45:19.875Z,75.63
2019-03-06T01:46:19.867Z,75.60
2019-03-06T01:47:19.888Z,75.91
2019-03-06T01:48:19.848Z,76.12
2019-03-06T01:49:19.849Z,75.70
2019-03-06T01:50:19.824Z,75.70
2019-03-06T01:51:19.815Z,75.81
2019-03-06T01:52:19.821Z,75.81
2019-03-06T01:53:19.792Z,75.91
2019-03-06T01:54:19.773Z,75.91
2019-03-06T01:55:19.767Z,76.01
2019-03-06T01:56:19.770Z,76.01
2019-03-06T01:57:19.766Z,76.01
2019-03-06T01:58:19.730Z,76.12
2019-03-06T01:59:19.717Z,75.81
2019-03-06T02:00:19.715Z,76.01
2019-03-06T02:01:19.712Z,76.01
2019-03-06T02:02:19.741Z,76.53
2019-03-06T02:03:19.672Z,76.53
2019-03-06T02:04:19.737Z,76.63
2019-03-06T02:05:19.653Z,76.53
2019-03-06T02:06:19.699Z,76.59
2019-03-06T02:07:19.660Z,76.73
2019-03-06T02:08:19.662Z,76.84
2019-03-06T02:09:19.605Z,76.84
2019-03-06T02:10:19.631Z,76.94
2019-03-06T02:11:19.585Z,77.11
2019-03-06T02:12:19.570Z,77.31
2019-03-06T02:13:19.583Z,77.25
2019-03-06T02:14:19.564Z,77.25
2019-03-06T02:15:19.538Z,77.66
2019-03-06T02:16:19.540Z,77.45
2019-03-06T02:17:19.516Z,77.76
2019-03-06T02:18:19.541Z,77.80
2019-03-06T02:19:19.493Z,77.87
2019-03-06T02:20:19.490Z,77.56
2019-03-06T02:21:19.468Z,77.73
2019-03-06T02:22:19.458Z,77.91
2019-03-06T02:23:19.473Z,77.62
2019-03-06T02:24:19.437Z,77.73
2019-03-06T02:25:19.423Z,77.87
2019-03-06T02:26:19.410Z,77.97
2019-03-06T02:27:19.400Z,77.45
2019-03-06T02:28:19.427Z,78.18
2019-03-06T02:29:19.382Z,77.97
2019-03-06T02:30:19.373Z,78.18
2019-03-06T02:31:19.355Z,77.66
2019-03-06T02:32:19.347Z,77.76
2019-03-06T02:33:19.357Z,77.52
2019-03-06T02:34:19.356Z,78.90
2019-03-06T02:35:19.307Z,78.55
2019-03-06T02:36:19.309Z,78.69
2019-03-06T02:37:19.285Z,78.28
2019-03-06T02:38:19.273Z,78.69
2019-03-06T02:39:19.289Z,78.59
2019-03-06T02:40:19.281Z,79.27
2019-03-06T02:41:19.249Z,79.00
2019-03-06T02:42:19.230Z,79.21
2019-03-06T02:43:19.221Z,79.11
2019-03-06T02:44:19.208Z,80.14
2019-03-06T02:45:19.227Z,79.83
2019-03-06T02:46:19.188Z,80.24
2019-03-06T02:47:19.172Z,80.55
2019-03-06T02:48:19.167Z,80.14
2019-03-06T02:49:19.152Z,80.65
2019-03-06T02:50:19.160Z,81.68
2019-03-06T02:51:19.134Z,81.27
2019-03-06T02:52:19.120Z,81.27
2019-03-06T02:53:19.106Z,81.79
2019-03-06T02:54:19.118Z,81.93
2019-03-06T02:55:19.082Z,82.55
2019-03-06T02:56:19.077Z,82.14
2019-03-06T02:57:19.059Z,82.14
2019-03-06T02:58:19.051Z,81.89
2019-03-06T02:59:19.059Z,82.45
2019-03-06T03:00:19.050Z,82.14
2019-03-06T03:01:19.018Z,82.82
2019-03-06T03:02:19.001Z,83.06
2019-03-06T03:03:18.994Z,83.48
2019-03-06T03:04:18.987Z,83.48
2019-03-06T03:05:18.991Z,83.99
2019-03-06T03:06:18.972Z,84.30
2019-03-06T03:07:18.946Z,84.16
2019-03-06T03:08:18.938Z,84.30
2019-03-06T03:09:18.921Z,84.81
2019-03-06T03:10:18.934Z,85.02
2019-03-06T03:11:18.933Z,84.61
2019-03-06T03:12:18.895Z,85.23
2019-03-06T03:13:18.877Z,85.23
2019-03-06T03:14:18.868Z,85.33
2019-03-06T03:15:18.888Z,85.33
2019-03-06T03:16:18.844Z,85.78
2019-03-06T03:17:18.835Z,86.16
2019-03-06T03:18:18.817Z,85.85
2019-03-06T03:19:18.823Z,86.30
2019-03-06T03:20:18.828Z,85.95
2019-03-06T03:21:18.813Z,86.36
2019-03-06T03:22:18.775Z,86.78
2019-03-06T03:23:18.760Z,86.47
2019-03-06T03:24:18.751Z,86.71
2019-03-06T03:25:18.767Z,87.13
2019-03-06T03:26:18.727Z,86.88
2019-03-06T03:27:18.716Z,86.30
2019-03-06T03:28:19.814Z,86.78
2019-03-06T03:29:18.695Z,86.51
2019-03-06T03:30:18.749Z,86.41
2019-03-06T03:31:18.681Z,86.26
2019-03-06T03:32:18.662Z,86.71
2019-03-06T03:33:18.648Z,87.50
2019-03-06T03:34:18.640Z,86.92
2019-03-06T03:35:18.654Z,86.68
2019-03-06T03:36:18.649Z,86.68
2019-03-06T03:37:18.608Z,86.05
2019-03-06T03:38:18.603Z,86.68
2019-03-06T03:39:18.596Z,87.23
2019-03-06T03:40:18.567Z,87.02
2019-03-06T03:41:18.575Z,86.78
2019-03-06T03:42:18.548Z,87.08
2019-03-06T03:43:18.542Z,87.08
2019-03-06T03:44:18.523Z,86.68
2019-03-06T03:45:18.509Z,87.08
2019-03-06T03:46:18.526Z,86.78
2019-03-06T03:47:18.498Z,86.57
2019-03-06T03:48:18.475Z,86.88
2019-03-06T03:49:18.469Z,86.68
2019-03-06T03:50:18.453Z,86.78
2019-03-06T03:51:18.472Z,86.88
2019-03-06T03:52:18.428Z,86.78
2019-03-06T03:53:18.420Z,86.78
2019-03-06T03:54:18.405Z,86.78
2019-03-06T03:55:18.403Z,86.36
2019-03-06T03:56:18.410Z,86.36
2019-03-06T03:57:18.373Z,86.78
2019-03-06T03:58:18.369Z,86.57
2019-03-06T03:59:18.351Z,86.68
2019-03-06T04:00:18.338Z,86.88
2019-03-06T04:01:18.366Z,86.68
2019-03-06T04:02:18.316Z,87.08
2019-03-06T04:03:18.305Z,86.78
2019-03-06T04:04:18.294Z,87.71
2019-03-06T04:05:18.282Z,87.13
2019-03-06T04:06:18.271Z,87.08
2019-03-06T04:07:18.283Z,87.71
2019-03-06T04:08:18.284Z,87.92
2019-03-06T04:09:18.239Z,86.88
2019-03-06T04:10:18.242Z,87.19
2019-03-06T04:11:18.211Z,87.81
2019-03-06T04:12:18.223Z,87.50
2019-03-06T04:13:18.200Z,86.68
2019-03-06T04:14:18.189Z,86.78
2019-03-06T04:15:18.170Z,86.68
2019-03-06T04:16:18.159Z,86.68
2019-03-06T04:17:18.172Z,86.57
2019-03-06T04:18:18.133Z,87.29
2019-03-06T04:19:18.122Z,87.40
2019-03-06T04:20:18.129Z,86.88
2019-03-06T04:21:18.106Z,86.88
2019-03-06T04:22:18.113Z,86.88
2019-03-06T04:23:18.081Z,87.29
2019-03-06T04:24:18.097Z,87.08
2019-03-06T04:25:18.054Z,86.47
2019-03-06T04:26:18.043Z,86.98
2019-03-06T04:27:18.069Z,86.88
2019-03-06T04:28:18.017Z,86.68
2019-03-06T04:29:18.006Z,86.68
2019-03-06T04:30:18.004Z,86.98
2019-03-06T04:31:17.984Z,86.98
2019-03-06T04:32:17.994Z,87.29
2019-03-06T04:33:17.968Z,86.78
2019-03-06T04:34:17.951Z,86.88
2019-03-06T04:35:17.947Z,87.40
2019-03-06T04:36:17.931Z,87.71
2019-03-06T04:37:17.940Z,87.60
2019-03-06T04:38:17.937Z,87.60
2019-03-06T04:39:17.906Z,87.40
2019-03-06T04:40:17.885Z,87.60
2019-03-06T04:41:17.872Z,87.50
2019-03-06T04:42:17.857Z,87.60
2019-03-06T04:43:17.871Z,87.50
2019-03-06T04:44:17.843Z,87.50
2019-03-06T04:45:17.829Z,87.50
2019-03-06T04:46:17.812Z,87.81
2019-03-06T04:47:17.804Z,87.40
2019-03-06T04:48:17.813Z,87.81
2019-03-06T04:49:17.777Z,87.40
2019-03-06T04:50:17.774Z,87.50
2019-03-06T04:51:17.763Z,87.40
2019-03-06T04:52:17.745Z,87.50
2019-03-06T04:53:17.759Z,87.71
2019-03-06T04:54:17.723Z,87.29
2019-03-06T04:55:17.710Z,87.46
2019-03-06T04:56:17.710Z,87.26
2019-03-06T04:57:17.695Z,87.71
2019-03-06T04:58:17.727Z,87.77
2019-03-06T04:59:17.663Z,87.66
2019-03-06T05:00:17.655Z,87.40
2019-03-06T05:01:17.643Z,87.50
2019-03-06T05:02:17.629Z,87.66
2019-03-06T05:03:17.622Z,87.29
2019-03-06T05:04:17.637Z,87.56
2019-03-06T05:05:17.597Z,87.46
2019-03-06T05:06:17.596Z,87.46
2019-03-06T05:07:17.573Z,87.66
2019-03-06T05:08:17.565Z,87.46
2019-03-06T05:09:17.729Z,87.46
2019-03-06T05:10:17.549Z,87.46
2019-03-06T05:11:17.535Z,87.66
2019-03-06T05:12:17.518Z,87.56
2019-03-06T05:13:17.510Z,87.87
2019-03-06T05:14:17.516Z,87.77
2019-03-06T05:15:17.538Z,87.87
2019-03-06T05:16:17.478Z,87.26
2019-03-06T05:17:17.459Z,87.77
2019-03-06T05:18:17.448Z,87.56
2019-03-06T05:19:17.467Z,87.11
2019-03-06T05:20:17.423Z,86.80
2019-03-06T05:21:17.416Z,86.94
2019-03-06T05:22:17.401Z,86.80
2019-03-06T05:23:17.393Z,87.15
2019-03-06T05:24:17.405Z,86.74
2019-03-06T05:25:17.367Z,87.01
2019-03-06T05:26:17.354Z,86.84
2019-03-06T05:27:17.355Z,86.94
2019-03-06T05:28:17.340Z,87.01
2019-03-06T05:29:17.428Z,86.94
2019-03-06T05:30:17.314Z,86.90
2019-03-06T05:31:17.309Z,87.05
2019-03-06T05:32:17.290Z,86.60
2019-03-06T05:33:17.279Z,86.90
2019-03-06T05:34:17.329Z,86.60
2019-03-06T05:35:17.253Z,86.80
2019-03-06T05:36:17.251Z,86.60
2019-03-06T05:37:17.238Z,87.01
2019-03-06T05:38:17.222Z,86.60
2019-03-06T05:39:17.211Z,87.21
2019-03-06T05:40:17.229Z,87.73
2019-03-06T05:41:17.193Z,87.21
2019-03-06T05:42:17.184Z,87.73
2019-03-06T05:43:17.168Z,86.80
2019-03-06T05:44:17.158Z,86.90
2019-03-06T05:45:17.177Z,87.63
2019-03-06T05:46:17.131Z,86.80
2019-03-06T05:47:17.121Z,86.60
2019-03-06T05:48:17.110Z,87.21
2019-03-06T05:49:17.111Z,86.70
2019-03-06T05:50:17.120Z,86.60
2019-03-06T05:51:17.076Z,86.90
2019-03-06T05:52:17.068Z,87.21
2019-03-06T05:53:17.053Z,87.11
2019-03-06T05:54:17.050Z,87.21
2019-03-06T05:55:17.053Z,87.63
2019-03-06T05:56:17.023Z,87.59
2019-03-06T05:57:17.008Z,87.42
2019-03-06T05:58:16.999Z,87.52
2019-03-06T05:59:16.994Z,87.32
2019-03-06T06:00:17.013Z,87.01
2019-03-06T06:01:16.966Z,87.63
2019-03-06T06:02:16.949Z,87.79
2019-03-06T06:03:16.941Z,87.93
2019-03-06T06:04:16.939Z,87.21
2019-03-06T06:05:16.925Z,87.69
2019-03-06T06:06:16.936Z,86.90
2019-03-06T06:07:16.900Z,86.90
2019-03-06T06:08:16.891Z,87.73
2019-03-06T06:09:16.872Z,86.55
2019-03-06T06:10:16.865Z,86.60
2019-03-06T06:11:16.882Z,87.01
2019-03-06T06:12:16.851Z,86.87
2019-03-06T06:13:16.826Z,86.76
2019-03-06T06:14:16.820Z,87.90
2019-03-06T06:15:16.815Z,86.97
2019-03-06T06:16:16.832Z,86.76
2019-03-06T06:17:16.781Z,87.17
2019-03-06T06:18:16.781Z,86.97
2019-03-06T06:19:16.762Z,86.80
2019-03-06T06:20:16.752Z,86.97
2019-03-06T06:21:16.765Z,86.76
2019-03-06T06:22:16.728Z,87.59
2019-03-06T06:23:16.719Z,86.97
2019-03-06T06:24:16.709Z,86.55
2019-03-06T06:25:16.700Z,87.17
2019-03-06T06:26:16.715Z,86.55
2019-03-06T06:27:16.669Z,86.55
2019-03-06T06:28:16.659Z,86.66
2019-03-06T06:29:16.648Z,86.35
2019-03-06T06:30:16.643Z,86.87
2019-03-06T06:31:16.654Z,86.24
2019-03-06T06:32:16.616Z,87.07
2019-03-06T06:33:16.610Z,86.55
2019-03-06T06:34:16.606Z,86.66
2019-03-06T06:35:16.585Z,86.87
2019-03-06T06:36:16.668Z,86.76
2019-03-06T06:37:16.617Z,86.55
2019-03-06T06:38:16.550Z,86.66
2019-03-06T06:39:16.557Z,86.35
2019-03-06T06:40:16.538Z,86.66
2019-03-06T06:41:16.516Z,86.15
2019-03-06T06:42:16.544Z,86.04
2019-03-06T06:43:16.495Z,86.21
2019-03-06T06:44:16.484Z,86.10
2019-03-06T06:45:16.478Z,86.15
2019-03-06T06:46:16.479Z,86.41
2019-03-06T06:47:16.479Z,86.66
2019-03-06T06:48:16.448Z,86.72
2019-03-06T06:49:16.425Z,86.41
2019-03-06T06:50:16.423Z,86.76
2019-03-06T06:51:16.418Z,86.55
2019-03-06T06:52:16.415Z,86.35
2019-03-06T06:53:16.388Z,86.31
2019-03-06T06:54:16.383Z,86.72
2019-03-06T06:55:16.366Z,86.10
2019-03-06T06:56:16.347Z,86.00
2019-03-06T06:57:16.372Z,85.79
2019-03-06T06:58:16.325Z,85.38
2019-03-06T06:59:16.318Z,85.89
2019-03-06T07:00:16.318Z,85.44
2019-03-06T07:01:16.295Z,85.59
2019-03-06T07:02:16.308Z,85.44
2019-03-06T07:03:16.281Z,85.65
2019-03-06T07:04:16.258Z,85.38
2019-03-06T07:05:16.249Z,85.38
2019-03-06T07:06:16.247Z,85.38
2019-03-06T07:07:16.258Z,85.34
2019-03-06T07:08:16.266Z,85.75
2019-03-06T07:09:16.213Z,85.24
2019-03-06T07:10:16.197Z,85.14
2019-03-06T07:11:16.185Z,85.17
2019-03-06T07:12:16.173Z,84.97
2019-03-06T07:13:16.189Z,84.93
2019-03-06T07:14:16.152Z,85.24
2019-03-06T07:15:16.149Z,84.93
2019-03-06T07:16:16.126Z,85.14
2019-03-06T07:17:16.113Z,85.03
2019-03-06T07:18:16.133Z,84.72
2019-03-06T07:19:16.091Z,84.62
2019-03-06T07:20:16.084Z,84.89
2019-03-06T07:21:16.086Z,84.72
2019-03-06T07:22:16.072Z,84.17
2019-03-06T07:23:16.082Z,84.00
2019-03-06T07:24:16.036Z,83.86
2019-03-06T07:25:16.032Z,83.55
2019-03-06T07:26:16.021Z,84.48
2019-03-06T07:27:16.009Z,84.52
2019-03-06T07:28:16.026Z,84.11
2019-03-06T07:29:15.991Z,83.86
2019-03-06T07:30:15.972Z,83.97
2019-03-06T07:31:15.960Z,84.07
2019-03-06T07:32:15.947Z,84.07
2019-03-06T07:33:15.969Z,84.27
2019-03-06T07:34:15.925Z,83.65
2019-03-06T07:35:15.925Z,84.07
2019-03-06T07:36:15.909Z,84.17
2019-03-06T07:37:15.898Z,83.92
2019-03-06T07:38:15.910Z,84.07
2019-03-06T07:39:15.900Z,83.83
2019-03-06T07:40:15.863Z,83.76
2019-03-06T07:41:15.877Z,83.83
2019-03-06T07:42:15.848Z,83.41
2019-03-06T07:43:15.825Z,83.45
2019-03-06T07:44:15.861Z,83.41
2019-03-06T07:45:15.807Z,83.27
2019-03-06T07:46:15.800Z,83.72
2019-03-06T07:47:15.783Z,83.17
2019-03-06T07:48:15.770Z,83.41
2019-03-06T07:49:15.781Z,83.20
2019-03-06T07:50:15.759Z,82.79
2019-03-06T07:51:15.736Z,82.45
2019-03-06T07:52:15.761Z,82.48
2019-03-06T07:53:15.721Z,82.59
2019-03-06T07:54:15.731Z,81.83
2019-03-06T07:55:15.692Z,82.04
2019-03-06T07:56:15.693Z,82.14
2019-03-06T07:57:15.672Z,82.24
2019-03-06T07:58:15.659Z,82.76
2019-03-06T07:59:15.683Z,82.76
2019-03-06T08:00:15.638Z,81.73
2019-03-06T08:01:17.260Z,81.52
2019-03-06T08:02:15.657Z,81.62
2019-03-06T08:03:15.602Z,81.42
2019-03-06T08:04:15.611Z,81.62
2019-03-06T08:05:15.604Z,82.04
2019-03-06T08:06:15.571Z,81.62
2019-03-06T08:07:15.576Z,81.21
2019-03-06T08:08:15.546Z,81.21
2019-03-06T08:09:15.549Z,81.18
2019-03-06T08:10:15.547Z,81.11
2019-03-06T08:11:15.515Z,81.28
2019-03-06T08:12:15.505Z,81.18
2019-03-06T08:13:15.493Z,81.18
2019-03-06T08:14:22.092Z,80.97
2019-03-06T08:15:16.516Z,81.07
2019-03-06T08:16:15.461Z,81.07
2019-03-06T08:17:15.448Z,81.18
2019-03-06T08:18:15.442Z,81.38
2019-03-06T08:19:15.423Z,80.05
2019-03-06T08:20:15.415Z,79.94
2019-03-06T08:21:15.432Z,79.80
2019-03-06T08:22:15.401Z,79.84
2019-03-06T08:23:15.386Z,80.01
2019-03-06T08:24:15.419Z,79.49
2019-03-06T08:25:15.365Z,79.29
2019-03-06T08:26:15.594Z,79.49
2019-03-06T08:27:15.344Z,79.19
2019-03-06T08:28:15.407Z,79.22
2019-03-06T08:29:15.311Z,79.39
2019-03-06T08:30:15.298Z,79.60
2019-03-06T08:31:15.322Z,79.08
2019-03-06T08:32:15.291Z,78.67
2019-03-06T08:33:18.126Z,78.06
2019-03-06T08:34:15.305Z,78.74
2019-03-06T08:35:15.242Z,78.12
2019-03-06T08:36:15.275Z,78.02
2019-03-06T08:37:15.228Z,78.36
2019-03-06T08:38:15.223Z,78.43
2019-03-06T08:39:15.205Z,78.33
2019-03-06T08:40:15.184Z,78.43
2019-03-06T08:41:15.212Z,78.09
2019-03-06T08:42:15.224Z,78.02
2019-03-06T08:43:15.159Z,78.12
2019-03-06T08:44:15.144Z,78.23
2019-03-06T08:45:15.141Z,77.92
2019-03-06T08:46:15.353Z,77.81
2019-03-06T08:47:15.128Z,77.71
2019-03-06T08:48:15.099Z,77.30
2019-03-06T08:49:15.093Z,77.58
2019-03-06T08:50:15.085Z,77.10
2019-03-06T08:51:15.140Z,77.37
2019-03-06T08:52:15.099Z,77.47
2019-03-06T08:53:15.045Z,77.00
2019-03-06T08:54:15.025Z,76.65
2019-03-06T08:55:15.017Z,76.45
2019-03-06T08:56:15.031Z,76.14
2019-03-06T08:57:15.031Z,76.14
2019-03-06T08:58:14.984Z,76.04
2019-03-06T08:59:14.972Z,75.69
2019-03-06T09:00:14.958Z,76.04
2019-03-06T09:01:14.950Z,76.00
2019-03-06T09:02:15.789Z,76.14
2019-03-06T09:03:14.925Z,76.20
2019-03-06T09:04:14.925Z,76.04
2019-03-06T09:05:14.911Z,76.10
2019-03-06T09:06:14.893Z,75.18
2019-03-06T09:07:14.909Z,74.57
2019-03-06T09:08:14.877Z,74.46
2019-03-06T09:09:14.868Z,74.43
2019-03-06T09:10:14.859Z,74.46
2019-03-06T09:11:14.841Z,74.36
2019-03-06T09:12:14.863Z,74.36
2019-03-06T09:13:14.813Z,74.36
2019-03-06T09:14:14.803Z,74.36
2019-03-06T09:15:14.797Z,73.64
2019-03-06T09:16:14.782Z,73.44
2019-03-06T09:17:14.795Z,73.91
2019-03-06T09:18:14.762Z,73.50
2019-03-06T09:19:14.747Z,72.99
2019-03-06T09:20:14.745Z,73.19
2019-03-06T09:21:14.730Z,73.50
2019-03-06T09:22:14.919Z,72.89
2019-03-06T09:23:22.780Z,73.10
2019-03-06T09:24:15.689Z,73.40
2019-03-06T09:25:14.690Z,72.14
2019-03-06T09:26:14.666Z,72.07
2019-03-06T09:27:14.660Z,72.03
2019-03-06T09:28:14.667Z,71.42
2019-03-06T09:29:14.634Z,71.42
2019-03-06T09:30:16.190Z,71.83
2019-03-06T09:31:14.631Z,71.42
2019-03-06T09:32:14.599Z,71.08
2019-03-06T09:33:14.617Z,70.91
2019-03-06T09:34:14.577Z,70.87
2019-03-06T09:35:14.568Z,70.98
2019-03-06T09:36:14.574Z,71.59
2019-03-06T09:37:14.542Z,70.87
2019-03-06T09:38:14.558Z,70.70
2019-03-06T09:39:14.556Z,70.16
2019-03-06T09:40:14.509Z,71.08
2019-03-06T09:41:14.515Z,71.08
2019-03-06T09:42:14.495Z,70.87
2019-03-06T09:43:14.567Z,70.98
2019-03-06T09:44:14.468Z,69.92
2019-03-06T09:45:14.562Z,69.92
2019-03-06T09:46:14.449Z,69.31
2019-03-06T09:47:14.475Z,70.33
2019-03-06T09:48:14.453Z,69.31
2019-03-06T09:49:14.414Z,68.69
2019-03-06T09:50:14.404Z,69.48
2019-03-06T09:51:14.403Z,68.55
2019-03-06T09:52:14.383Z,68.05
2019-03-06T09:53:14.362Z,67.10
2019-03-06T09:54:14.384Z,67.60
2019-03-06T09:55:14.355Z,67.10
2019-03-06T09:56:14.341Z,67.19
2019-03-06T09:57:14.320Z,67.50
2019-03-06T09:58:14.309Z,67.19
2019-03-06T09:59:14.327Z,66.48
2019-03-06T10:00:14.287Z,66.35
2019-03-06T10:01:14.279Z,66.14
2019-03-06T10:02:14.294Z,66.25
2019-03-06T10:03:14.252Z,65.63
2019-03-06T10:04:14.276Z,64.71
2019-03-06T10:05:14.256Z,65.22
2019-03-06T10:06:14.221Z,65.09
2019-03-06T10:07:14.210Z,64.27
2019-03-06T10:08:14.206Z,63.96
2019-03-06T10:09:14.227Z,63.32
2019-03-06T10:10:14.295Z,64.04
2019-03-06T10:11:17.195Z,62.51
2019-03-06T10:12:14.157Z,62.20
2019-03-06T10:13:14.148Z,62.30
2019-03-06T10:14:14.190Z,61.56
2019-03-06T10:15:14.156Z,61.46
2019-03-06T10:16:14.106Z,61.15
2019-03-06T10:17:14.099Z,61.12
2019-03-06T10:18:14.105Z,60.10
2019-03-06T10:19:14.085Z,60.30
2019-03-06T10:20:14.098Z,60.10
2019-03-06T10:21:14.055Z,60.10
2019-03-06T10:22:14.038Z,59.77
2019-03-06T10:23:14.037Z,58.85
2019-03-06T10:24:14.018Z,58.85
2019-03-06T10:25:14.035Z,58.95
2019-03-06T10:26:14.000Z,59.16
2019-03-06T10:27:13.990Z,58.41
2019-03-06T10:28:13.977Z,58.41
2019-03-06T10:29:13.974Z,58.31
2019-03-06T10:30:13.988Z,57.47
2019-03-06T10:31:13.946Z,57.37
2019-03-06T10:32:13.926Z,56.76
2019-03-06T10:33:13.946Z,56.93
2019-03-06T10:34:13.905Z,56.02
2019-03-06T10:35:14.095Z,56.63
2019-03-06T10:36:13.915Z,56.63
2019-03-06T10:37:13.874Z,56.22
2019-03-06T10:38:16.675Z,56.42
2019-03-06T10:39:13.853Z,55.48
2019-03-06T10:40:13.861Z,55.81
2019-03-06T10:41:13.853Z,55.71
2019-03-06T10:42:13.816Z,55.30
2019-03-06T10:43:13.811Z,56.09
2019-03-06T10:44:13.790Z,55.20
2019-03-06T10:45:13.780Z,55.28
2019-03-06T10:46:13.790Z,54.66
2019-03-06T10:47:13.773Z,55.58
2019-03-06T10:48:13.758Z,55.58
2019-03-06T10:49:13.734Z,56.70
2019-03-06T10:50:13.718Z,55.61
2019-03-06T10:51:13.738Z,55.81
2019-03-06T10:52:13.702Z,55.51
2019-03-06T10:53:13.694Z,55.81
2019-03-06T10:54:13.674Z,55.81
2019-03-06T10:55:13.663Z,55.61
2019-03-06T10:56:13.678Z,56.35
2019-03-06T10:57:13.643Z,55.41
2019-03-06T10:58:13.634Z,55.41
2019-03-06T10:59:13.618Z,55.61
2019-03-06T11:00:13.612Z,55.51
2019-03-06T11:01:13.607Z,55.30
2019-03-06T11:02:13.607Z,55.51
2019-03-06T11:03:13.589Z,55.51
2019-03-06T11:04:13.562Z,55.74
2019-03-06T11:05:13.547Z,55.61
2019-03-06T11:06:13.563Z,55.51
2019-03-06T11:07:13.526Z,55.51
2019-03-06T11:08:13.520Z,55.71
2019-03-06T11:09:13.504Z,55.91
2019-03-06T11:10:23.284Z,55.38
2019-03-06T11:11:14.503Z,55.71
2019-03-06T11:12:13.495Z,55.41
2019-03-06T11:13:13.462Z,55.38
2019-03-06T11:14:13.451Z,55.81
2019-03-06T11:15:13.442Z,55.38
2019-03-06T11:16:13.425Z,56.40
2019-03-06T11:17:13.437Z,55.48
2019-03-06T11:18:13.400Z,55.28
2019-03-06T11:19:13.392Z,55.18
2019-03-06T11:20:13.501Z,55.35
2019-03-06T11:21:13.371Z,55.25
2019-03-06T11:22:13.382Z,55.46
2019-03-06T11:23:13.347Z,54.94
2019-03-06T11:24:13.337Z,54.85
2019-03-06T11:25:13.324Z,55.66
2019-03-06T11:26:13.317Z,55.25
2019-03-06T11:27:13.330Z,55.46
2019-03-06T11:28:13.285Z,53.83
2019-03-06T11:29:13.276Z,54.13
2019-03-06T11:30:13.261Z,53.80
2019-03-06T11:31:13.255Z,53.70
2019-03-06T11:32:13.275Z,54.00
2019-03-06T11:33:13.384Z,55.00
2019-03-06T11:34:13.224Z,53.78
2019-03-06T11:35:13.210Z,53.98
2019-03-06T11:36:13.195Z,53.27
2019-03-06T11:37:13.187Z,53.37
2019-03-06T11:38:13.204Z,52.73
2019-03-06T11:39:13.172Z,52.03
2019-03-06T11:40:13.163Z,52.43
2019-03-06T11:41:13.200Z,51.62
2019-03-06T11:42:13.130Z,52.15
2019-03-06T11:43:13.211Z,51.92
2019-03-06T11:44:13.115Z,52.33
2019-03-06T11:45:13.096Z,51.51
2019-03-06T11:46:13.085Z,51.62
2019-03-06T11:47:13.082Z,51.92
2019-03-06T11:48:13.091Z,51.70
2019-03-06T11:49:13.053Z,51.62
2019-03-06T11:50:13.045Z,51.62
2019-03-06T11:51:13.033Z,51.59
2019-03-06T11:52:13.014Z,52.00
2019-03-06T11:53:13.029Z,51.67
2019-03-06T11:54:12.992Z,51.79
2019-03-06T11:55:12.985Z,51.77
2019-03-06T11:56:12.986Z,51.06
2019-03-06T11:57:12.957Z,51.06
2019-03-06T11:58:12.974Z,50.76
2019-03-06T11:59:12.964Z,51.18
2019-03-06T12:00:12.929Z,51.16
2019-03-06T12:01:12.952Z,51.26
2019-03-06T12:02:12.901Z,50.58
2019-03-06T12:03:12.898Z,51.29
2019-03-06T12:04:12.912Z,51.29
2019-03-06T12:05:12.903Z,51.09
2019-03-06T12:06:12.862Z,50.48
2019-03-06T12:07:12.848Z,50.98
2019-03-06T12:08:12.833Z,50.88
2019-03-06T12:09:12.855Z,51.18
2019-03-06T12:10:12.813Z,51.31
2019-03-06T12:11:12.810Z,51.39
2019-03-06T12:12:12.802Z,51.09
2019-03-06T12:13:12.777Z,51.18
2019-03-06T12:14:12.809Z,51.09
2019-03-06T12:15:12.759Z,51.21
2019-03-06T12:16:12.759Z,50.58
2019-03-06T12:17:12.738Z,51.09
2019-03-06T12:18:12.721Z,51.01
2019-03-06T12:19:12.745Z,51.39
2019-03-06T12:20:12.704Z,49.76
2019-03-06T12:21:12.689Z,50.29
2019-03-06T12:22:12.680Z,49.46
2019-03-06T12:23:12.680Z,49.66
2019-03-06T12:24:13.196Z,50.27
2019-03-06T12:25:12.658Z,49.66
2019-03-06T12:26:12.632Z,49.64
2019-03-06T12:27:12.623Z,49.76
2019-03-06T12:28:12.615Z,49.76
2019-03-06T12:29:12.623Z,49.64
2019-03-06T12:30:12.603Z,49.33
2019-03-06T12:31:12.581Z,48.93
2019-03-06T12:32:12.586Z,49.46
2019-03-06T12:33:12.561Z,49.84
2019-03-06T12:34:12.579Z,49.74
2019-03-06T12:35:12.542Z,49.74
2019-03-06T12:36:12.524Z,49.74
2019-03-06T12:37:12.512Z,49.95
2019-03-06T12:38:12.502Z,50.04
2019-03-06T12:39:12.520Z,50.04
2019-03-06T12:40:14.706Z,49.84
2019-03-06T12:41:12.776Z,50.45
2019-03-06T12:42:14.741Z,50.76
2019-03-06T12:43:12.444Z,50.45
2019-03-06T12:44:12.437Z,50.35
2019-03-06T12:45:12.458Z,50.33
2019-03-06T12:46:12.418Z,49.62
2019-03-06T12:47:12.403Z,49.95
2019-03-06T12:48:12.388Z,50.02
2019-03-06T12:49:12.380Z,49.82
2019-03-06T12:50:12.397Z,50.02
2019-03-06T12:51:12.359Z,50.02
2019-03-06T12:52:12.349Z,50.65